sensor_id;sensor_type;location;lat;lon;timestamp;temperature;humidity
56172;DHT22;42052;41.634;-0.946;2024-02-15T00:02:21;21.60;47.80
56172;DHT22;42052;41.634;-0.946;2024-02-15T00:04:47;21.60;47.70
56172;DHT22;42052;41.634;-0.946;2024-02-15T00:07:13;21.50;47.70
56172;DHT22;42052;41.634;-0.946;2024-02-15T00:09:39;21.50;47.50
56172;DHT22;42052;41.634;-0.946;2024-02-15T00:12:05;21.60;47.70
56172;DHT22;42052;41.634;-0.946;2024-02-15T00:14:31;21.50;47.70
56172;DHT22;42052;41.634;-0.946;2024-02-15T00:16:57;21.50;47.50
56172;DHT22;42052;41.634;-0.946;2024-02-15T00:19:23;21.50;47.60
56172;DHT22;42052;41.634;-0.946;2024-02-15T00:21:49;21.50;47.70
56172;DHT22;42052;41.634;-0.946;2024-02-15T00:24:15;21.50;47.70
56172;DHT22;42052;41.634;-0.946;2024-02-15T00:26:42;21.50;47.70
56172;DHT22;42052;41.634;-0.946;2024-02-15T00:29:08;21.40;47.80
56172;DHT22;42052;41.634;-0.946;2024-02-15T00:31:34;21.40;47.60
56172;DHT22;42052;41.634;-0.946;2024-02-15T00:34:04;21.40;47.70
56172;DHT22;42052;41.634;-0.946;2024-02-15T00:36:29;21.40;47.80
56172;DHT22;42052;41.634;-0.946;2024-02-15T00:38:55;21.40;47.80
56172;DHT22;42052;41.634;-0.946;2024-02-15T00:41:21;21.40;47.70
56172;DHT22;42052;41.634;-0.946;2024-02-15T00:43:47;21.40;47.80
56172;DHT22;42052;41.634;-0.946;2024-02-15T00:46:13;21.40;47.80
56172;DHT22;42052;41.634;-0.946;2024-02-15T00:48:39;21.40;47.70
56172;DHT22;42052;41.634;-0.946;2024-02-15T00:51:06;21.40;47.80
56172;DHT22;42052;41.634;-0.946;2024-02-15T00:53:33;21.40;47.80
56172;DHT22;42052;41.634;-0.946;2024-02-15T00:55:59;21.40;47.70
56172;DHT22;42052;41.634;-0.946;2024-02-15T00:58:25;21.40;47.80
56172;DHT22;42052;41.634;-0.946;2024-02-15T01:00:53;21.40;47.80
56172;DHT22;42052;41.634;-0.946;2024-02-15T01:03:19;21.40;47.90
56172;DHT22;42052;41.634;-0.946;2024-02-15T01:05:45;21.40;47.80
56172;DHT22;42052;41.634;-0.946;2024-02-15T01:08:11;21.40;47.80
56172;DHT22;42052;41.634;-0.946;2024-02-15T01:10:37;21.40;47.90
56172;DHT22;42052;41.634;-0.946;2024-02-15T01:13:03;21.40;47.80
56172;DHT22;42052;41.634;-0.946;2024-02-15T01:15:29;21.40;47.90
56172;DHT22;42052;41.634;-0.946;2024-02-15T01:17:55;21.40;47.90
56172;DHT22;42052;41.634;-0.946;2024-02-15T01:20:21;21.40;47.90
56172;DHT22;42052;41.634;-0.946;2024-02-15T01:22:47;21.40;47.90
56172;DHT22;42052;41.634;-0.946;2024-02-15T01:25:13;21.30;47.80
56172;DHT22;42052;41.634;-0.946;2024-02-15T01:27:41;21.30;47.90
56172;DHT22;42052;41.634;-0.946;2024-02-15T01:30:07;21.30;48.00
56172;DHT22;42052;41.634;-0.946;2024-02-15T01:32:34;21.30;47.90
56172;DHT22;42052;41.634;-0.946;2024-02-15T01:35:00;21.30;47.90
56172;DHT22;42052;41.634;-0.946;2024-02-15T01:37:26;21.30;47.90
56172;DHT22;42052;41.634;-0.946;2024-02-15T01:39:52;21.30;48.00
56172;DHT22;42052;41.634;-0.946;2024-02-15T01:42:18;21.30;47.90
56172;DHT22;42052;41.634;-0.946;2024-02-15T01:44:44;21.30;48.00
56172;DHT22;42052;41.634;-0.946;2024-02-15T01:47:13;21.30;48.00
56172;DHT22;42052;41.634;-0.946;2024-02-15T01:49:39;21.30;47.90
56172;DHT22;42052;41.634;-0.946;2024-02-15T01:52:07;21.30;48.00
56172;DHT22;42052;41.634;-0.946;2024-02-15T01:54:35;21.30;48.00
56172;DHT22;42052;41.634;-0.946;2024-02-15T01:57:04;21.30;48.00
56172;DHT22;42052;41.634;-0.946;2024-02-15T01:59:31;21.30;48.00
56172;DHT22;42052;41.634;-0.946;2024-02-15T02:01:57;21.30;47.90
56172;DHT22;42052;41.634;-0.946;2024-02-15T02:04:23;21.30;47.90
56172;DHT22;42052;41.634;-0.946;2024-02-15T02:06:49;21.30;47.90
56172;DHT22;42052;41.634;-0.946;2024-02-15T02:09:15;21.30;48.00
56172;DHT22;42052;41.634;-0.946;2024-02-15T02:11:46;21.30;48.00
56172;DHT22;42052;41.634;-0.946;2024-02-15T02:14:12;21.30;47.90
56172;DHT22;42052;41.634;-0.946;2024-02-15T02:16:38;21.30;48.00
56172;DHT22;42052;41.634;-0.946;2024-02-15T02:19:05;21.30;48.00
56172;DHT22;42052;41.634;-0.946;2024-02-15T02:21:35;21.30;48.20
56172;DHT22;42052;41.634;-0.946;2024-02-15T02:24:03;21.20;48.10
56172;DHT22;42052;41.634;-0.946;2024-02-15T02:26:34;21.30;48.00
56172;DHT22;42052;41.634;-0.946;2024-02-15T02:29:02;21.30;48.00
56172;DHT22;42052;41.634;-0.946;2024-02-15T02:31:33;21.30;48.00
56172;DHT22;42052;41.634;-0.946;2024-02-15T02:34:00;21.30;48.00
56172;DHT22;42052;41.634;-0.946;2024-02-15T02:36:26;21.30;48.10
56172;DHT22;42052;41.634;-0.946;2024-02-15T02:38:52;21.30;48.00
56172;DHT22;42052;41.634;-0.946;2024-02-15T02:41:19;21.30;48.00
56172;DHT22;42052;41.634;-0.946;2024-02-15T02:43:45;21.30;48.00
56172;DHT22;42052;41.634;-0.946;2024-02-15T02:46:11;21.30;48.10
56172;DHT22;42052;41.634;-0.946;2024-02-15T02:48:38;21.30;48.00
56172;DHT22;42052;41.634;-0.946;2024-02-15T02:51:04;21.30;48.10
56172;DHT22;42052;41.634;-0.946;2024-02-15T02:53:30;21.30;48.10
56172;DHT22;42052;41.634;-0.946;2024-02-15T02:55:56;21.30;48.10
56172;DHT22;42052;41.634;-0.946;2024-02-15T02:58:23;21.30;48.10
56172;DHT22;42052;41.634;-0.946;2024-02-15T03:00:49;21.30;48.00
56172;DHT22;42052;41.634;-0.946;2024-02-15T03:03:16;21.20;48.00
56172;DHT22;42052;41.634;-0.946;2024-02-15T03:05:42;21.20;48.00
56172;DHT22;42052;41.634;-0.946;2024-02-15T03:08:14;21.20;48.00
56172;DHT22;42052;41.634;-0.946;2024-02-15T03:10:43;21.30;48.20
56172;DHT22;42052;41.634;-0.946;2024-02-15T03:13:09;21.20;48.00
56172;DHT22;42052;41.634;-0.946;2024-02-15T03:15:35;21.30;48.00
56172;DHT22;42052;41.634;-0.946;2024-02-15T03:18:03;21.30;48.00
56172;DHT22;42052;41.634;-0.946;2024-02-15T03:20:33;21.20;48.00
56172;DHT22;42052;41.634;-0.946;2024-02-15T03:23:01;21.30;48.00
56172;DHT22;42052;41.634;-0.946;2024-02-15T03:25:28;21.30;48.00
56172;DHT22;42052;41.634;-0.946;2024-02-15T03:27:59;21.20;48.10
56172;DHT22;42052;41.634;-0.946;2024-02-15T03:30:31;21.20;48.10
56172;DHT22;42052;41.634;-0.946;2024-02-15T03:32:58;21.20;48.00
56172;DHT22;42052;41.634;-0.946;2024-02-15T03:35:28;21.30;48.00
56172;DHT22;42052;41.634;-0.946;2024-02-15T03:37:57;21.30;48.30
56172;DHT22;42052;41.634;-0.946;2024-02-15T03:40:23;21.30;47.90
56172;DHT22;42052;41.634;-0.946;2024-02-15T03:42:55;21.40;48.00
56172;DHT22;42052;41.634;-0.946;2024-02-15T03:45:22;21.40;48.00
56172;DHT22;42052;41.634;-0.946;2024-02-15T03:47:51;21.40;47.90
56172;DHT22;42052;41.634;-0.946;2024-02-15T03:50:17;21.50;48.00
56172;DHT22;42052;41.634;-0.946;2024-02-15T03:52:45;21.50;47.90
56172;DHT22;42052;41.634;-0.946;2024-02-15T03:55:11;21.40;48.00
56172;DHT22;42052;41.634;-0.946;2024-02-15T03:57:41;21.50;48.00
56172;DHT22;42052;41.634;-0.946;2024-02-15T04:00:09;21.50;48.00
56172;DHT22;42052;41.634;-0.946;2024-02-15T04:02:37;21.40;48.20
56172;DHT22;42052;41.634;-0.946;2024-02-15T04:05:06;21.40;48.40
56172;DHT22;42052;41.634;-0.946;2024-02-15T04:07:33;21.40;48.20
56172;DHT22;42052;41.634;-0.946;2024-02-15T04:09:59;21.40;48.40
56172;DHT22;42052;41.634;-0.946;2024-02-15T04:12:26;21.40;48.30
56172;DHT22;42052;41.634;-0.946;2024-02-15T04:14:52;21.40;48.20
56172;DHT22;42052;41.634;-0.946;2024-02-15T04:17:20;21.40;48.40
56172;DHT22;42052;41.634;-0.946;2024-02-15T04:19:48;21.40;48.10
56172;DHT22;42052;41.634;-0.946;2024-02-15T04:22:16;21.40;48.20
56172;DHT22;42052;41.634;-0.946;2024-02-15T04:24:43;21.40;48.30
56172;DHT22;42052;41.634;-0.946;2024-02-15T04:27:11;21.40;48.10
56172;DHT22;42052;41.634;-0.946;2024-02-15T04:29:39;21.40;48.10
56172;DHT22;42052;41.634;-0.946;2024-02-15T04:32:10;21.40;48.30
56172;DHT22;42052;41.634;-0.946;2024-02-15T04:34:37;21.40;48.30
56172;DHT22;42052;41.634;-0.946;2024-02-15T04:37:03;21.30;48.40
56172;DHT22;42052;41.634;-0.946;2024-02-15T04:39:35;21.40;48.10
56172;DHT22;42052;41.634;-0.946;2024-02-15T04:42:02;21.40;48.00
56172;DHT22;42052;41.634;-0.946;2024-02-15T04:44:28;21.40;47.90
56172;DHT22;42052;41.634;-0.946;2024-02-15T04:46:55;21.40;48.30
56172;DHT22;42052;41.634;-0.946;2024-02-15T04:49:21;21.40;48.20
56172;DHT22;42052;41.634;-0.946;2024-02-15T04:51:48;21.40;48.00
56172;DHT22;42052;41.634;-0.946;2024-02-15T04:54:14;21.50;48.10
56172;DHT22;42052;41.634;-0.946;2024-02-15T04:56:40;21.40;47.90
56172;DHT22;42052;41.634;-0.946;2024-02-15T04:59:09;21.50;48.10
56172;DHT22;42052;41.634;-0.946;2024-02-15T05:01:41;21.40;48.20
56172;DHT22;42052;41.634;-0.946;2024-02-15T05:04:11;21.50;48.10
56172;DHT22;42052;41.634;-0.946;2024-02-15T05:06:39;21.50;48.30
56172;DHT22;42052;41.634;-0.946;2024-02-15T05:09:06;21.50;48.00
56172;DHT22;42052;41.634;-0.946;2024-02-15T05:11:39;21.50;48.00
56172;DHT22;42052;41.634;-0.946;2024-02-15T05:14:15;21.50;47.90
56172;DHT22;42052;41.634;-0.946;2024-02-15T05:16:51;21.50;47.90
56172;DHT22;42052;41.634;-0.946;2024-02-15T05:19:17;21.50;47.80
56172;DHT22;42052;41.634;-0.946;2024-02-15T05:21:44;21.50;47.90
56172;DHT22;42052;41.634;-0.946;2024-02-15T05:24:14;21.50;47.70
56172;DHT22;42052;41.634;-0.946;2024-02-15T05:26:44;21.50;48.10
56172;DHT22;42052;41.634;-0.946;2024-02-15T05:29:14;21.50;47.80
56172;DHT22;42052;41.634;-0.946;2024-02-15T05:31:41;21.40;48.20
56172;DHT22;42052;41.634;-0.946;2024-02-15T05:34:07;21.40;47.90
56172;DHT22;42052;41.634;-0.946;2024-02-15T05:36:34;21.40;47.70
56172;DHT22;42052;41.634;-0.946;2024-02-15T05:39:00;21.40;47.80
56172;DHT22;42052;41.634;-0.946;2024-02-15T05:41:28;21.50;47.80
56172;DHT22;42052;41.634;-0.946;2024-02-15T05:43:55;21.50;48.00
56172;DHT22;42052;41.634;-0.946;2024-02-15T05:46:23;21.50;48.00
56172;DHT22;42052;41.634;-0.946;2024-02-15T05:48:50;21.50;48.00
56172;DHT22;42052;41.634;-0.946;2024-02-15T05:51:17;21.50;47.90
56172;DHT22;42052;41.634;-0.946;2024-02-15T05:53:43;21.50;47.90
56172;DHT22;42052;41.634;-0.946;2024-02-15T05:56:09;21.50;48.00
56172;DHT22;42052;41.634;-0.946;2024-02-15T05:58:39;21.50;48.00
56172;DHT22;42052;41.634;-0.946;2024-02-15T06:01:05;21.50;47.90
56172;DHT22;42052;41.634;-0.946;2024-02-15T06:03:33;21.50;47.90
56172;DHT22;42052;41.634;-0.946;2024-02-15T06:06:03;21.50;48.10
56172;DHT22;42052;41.634;-0.946;2024-02-15T06:08:32;21.50;47.90
56172;DHT22;42052;41.634;-0.946;2024-02-15T06:10:58;21.50;48.10
56172;DHT22;42052;41.634;-0.946;2024-02-15T06:13:26;21.50;47.90
56172;DHT22;42052;41.634;-0.946;2024-02-15T06:15:53;21.50;47.90
56172;DHT22;42052;41.634;-0.946;2024-02-15T06:18:28;21.50;47.90
56172;DHT22;42052;41.634;-0.946;2024-02-15T06:20:58;21.50;47.60
56172;DHT22;42052;41.634;-0.946;2024-02-15T06:23:25;21.50;47.50
56172;DHT22;42052;41.634;-0.946;2024-02-15T06:25:54;21.50;47.60
56172;DHT22;42052;41.634;-0.946;2024-02-15T06:28:20;21.50;47.80
56172;DHT22;42052;41.634;-0.946;2024-02-15T06:31:07;21.60;48.10
56172;DHT22;42052;41.634;-0.946;2024-02-15T06:33:51;21.50;48.10
56172;DHT22;42052;41.634;-0.946;2024-02-15T06:36:54;21.60;48.10
56172;DHT22;42052;41.634;-0.946;2024-02-15T06:39:39;21.60;48.10
56172;DHT22;42052;41.634;-0.946;2024-02-15T06:42:14;21.60;48.00
56172;DHT22;42052;41.634;-0.946;2024-02-15T06:44:45;21.60;47.80
56172;DHT22;42052;41.634;-0.946;2024-02-15T06:47:12;21.60;47.90
56172;DHT22;42052;41.634;-0.946;2024-02-15T06:49:39;21.60;47.60
56172;DHT22;42052;41.634;-0.946;2024-02-15T06:52:09;21.50;48.10
56172;DHT22;42052;41.634;-0.946;2024-02-15T06:54:37;21.50;47.90
56172;DHT22;42052;41.634;-0.946;2024-02-15T06:57:04;21.50;47.80
56172;DHT22;42052;41.634;-0.946;2024-02-15T06:59:30;21.50;47.70
56172;DHT22;42052;41.634;-0.946;2024-02-15T07:02:00;21.50;47.70
56172;DHT22;42052;41.634;-0.946;2024-02-15T07:04:27;21.50;47.70
56172;DHT22;42052;41.634;-0.946;2024-02-15T07:06:53;21.50;47.80
56172;DHT22;42052;41.634;-0.946;2024-02-15T07:09:22;21.50;47.70
56172;DHT22;42052;41.634;-0.946;2024-02-15T07:11:51;21.50;47.80
56172;DHT22;42052;41.634;-0.946;2024-02-15T07:14:17;21.50;47.90
56172;DHT22;42052;41.634;-0.946;2024-02-15T07:16:46;21.50;47.80
56172;DHT22;42052;41.634;-0.946;2024-02-15T07:19:13;21.50;47.90
56172;DHT22;42052;41.634;-0.946;2024-02-15T07:21:39;21.50;47.90
56172;DHT22;42052;41.634;-0.946;2024-02-15T07:24:05;21.50;48.00
56172;DHT22;42052;41.634;-0.946;2024-02-15T07:26:31;21.50;48.00
56172;DHT22;42052;41.634;-0.946;2024-02-15T07:28:59;21.50;48.00
56172;DHT22;42052;41.634;-0.946;2024-02-15T07:31:29;21.50;48.10
56172;DHT22;42052;41.634;-0.946;2024-02-15T07:33:55;21.40;47.90
56172;DHT22;42052;41.634;-0.946;2024-02-15T07:36:22;21.50;47.80
56172;DHT22;42052;41.634;-0.946;2024-02-15T07:38:48;21.40;48.00
56172;DHT22;42052;41.634;-0.946;2024-02-15T07:41:16;21.40;48.00
56172;DHT22;42052;41.634;-0.946;2024-02-15T07:43:43;21.40;47.90
56172;DHT22;42052;41.634;-0.946;2024-02-15T07:46:13;21.40;47.80
56172;DHT22;42052;41.634;-0.946;2024-02-15T07:48:45;21.40;47.90
56172;DHT22;42052;41.634;-0.946;2024-02-15T07:51:15;21.40;47.90
56172;DHT22;42052;41.634;-0.946;2024-02-15T07:53:42;21.40;47.80
56172;DHT22;42052;41.634;-0.946;2024-02-15T07:56:09;21.40;48.00
56172;DHT22;42052;41.634;-0.946;2024-02-15T07:58:43;21.40;47.90
56172;DHT22;42052;41.634;-0.946;2024-02-15T08:01:12;21.40;47.90
56172;DHT22;42052;41.634;-0.946;2024-02-15T08:03:40;21.30;47.90
56172;DHT22;42052;41.634;-0.946;2024-02-15T08:06:11;21.30;47.90
56172;DHT22;42052;41.634;-0.946;2024-02-15T08:08:42;21.30;47.90
56172;DHT22;42052;41.634;-0.946;2024-02-15T08:11:11;21.30;47.80
56172;DHT22;42052;41.634;-0.946;2024-02-15T08:13:46;21.30;47.90
56172;DHT22;42052;41.634;-0.946;2024-02-15T08:16:16;21.30;47.90
56172;DHT22;42052;41.634;-0.946;2024-02-15T08:18:46;21.30;47.90
56172;DHT22;42052;41.634;-0.946;2024-02-15T08:21:12;21.30;47.90
56172;DHT22;42052;41.634;-0.946;2024-02-15T08:23:38;21.30;47.80
56172;DHT22;42052;41.634;-0.946;2024-02-15T08:26:05;21.30;47.80
56172;DHT22;42052;41.634;-0.946;2024-02-15T08:28:30;21.30;47.90
56172;DHT22;42052;41.634;-0.946;2024-02-15T08:30:57;21.30;47.80
56172;DHT22;42052;41.634;-0.946;2024-02-15T08:33:23;21.30;47.80
56172;DHT22;42052;41.634;-0.946;2024-02-15T08:35:50;21.30;48.60
56172;DHT22;42052;41.634;-0.946;2024-02-15T08:38:16;21.30;47.70
56172;DHT22;42052;41.634;-0.946;2024-02-15T08:40:46;21.30;47.70
56172;DHT22;42052;41.634;-0.946;2024-02-15T08:43:13;21.30;47.80
56172;DHT22;42052;41.634;-0.946;2024-02-15T08:45:41;21.30;47.70
56172;DHT22;42052;41.634;-0.946;2024-02-15T08:48:07;21.30;47.70
56172;DHT22;42052;41.634;-0.946;2024-02-15T08:50:33;21.30;47.70
56172;DHT22;42052;41.634;-0.946;2024-02-15T08:52:59;21.30;47.60
56172;DHT22;42052;41.634;-0.946;2024-02-15T08:55:26;21.30;47.60
56172;DHT22;42052;41.634;-0.946;2024-02-15T08:57:53;21.30;47.50
56172;DHT22;42052;41.634;-0.946;2024-02-15T09:00:20;21.30;47.50
56172;DHT22;42052;41.634;-0.946;2024-02-15T09:02:46;21.30;47.50
56172;DHT22;42052;41.634;-0.946;2024-02-15T09:05:13;21.30;47.50
56172;DHT22;42052;41.634;-0.946;2024-02-15T09:07:43;21.30;47.50
56172;DHT22;42052;41.634;-0.946;2024-02-15T09:10:10;21.30;47.50
56172;DHT22;42052;41.634;-0.946;2024-02-15T09:12:37;21.30;47.60
56172;DHT22;42052;41.634;-0.946;2024-02-15T09:15:15;21.30;47.60
56172;DHT22;42052;41.634;-0.946;2024-02-15T09:17:42;21.30;47.60
56172;DHT22;42052;41.634;-0.946;2024-02-15T09:20:13;21.30;47.50
56172;DHT22;42052;41.634;-0.946;2024-02-15T09:22:48;21.30;47.50
56172;DHT22;42052;41.634;-0.946;2024-02-15T09:25:14;21.30;47.40
56172;DHT22;42052;41.634;-0.946;2024-02-15T09:27:40;21.30;47.40
56172;DHT22;42052;41.634;-0.946;2024-02-15T09:30:07;21.20;47.40
56172;DHT22;42052;41.634;-0.946;2024-02-15T09:32:36;21.20;47.40
56172;DHT22;42052;41.634;-0.946;2024-02-15T09:35:02;21.20;47.50
56172;DHT22;42052;41.634;-0.946;2024-02-15T09:37:28;21.20;47.40
56172;DHT22;42052;41.634;-0.946;2024-02-15T09:39:55;21.30;47.30
56172;DHT22;42052;41.634;-0.946;2024-02-15T09:42:21;21.30;47.40
56172;DHT22;42052;41.634;-0.946;2024-02-15T09:44:49;21.30;47.40
56172;DHT22;42052;41.634;-0.946;2024-02-15T09:47:18;21.30;47.30
56172;DHT22;42052;41.634;-0.946;2024-02-15T09:49:45;21.30;47.30
56172;DHT22;42052;41.634;-0.946;2024-02-15T09:52:10;21.30;47.30
56172;DHT22;42052;41.634;-0.946;2024-02-15T09:54:42;21.20;47.30
56172;DHT22;42052;41.634;-0.946;2024-02-15T09:57:09;21.20;47.30
56172;DHT22;42052;41.634;-0.946;2024-02-15T09:59:36;21.20;47.40
56172;DHT22;42052;41.634;-0.946;2024-02-15T10:02:02;21.20;47.30
56172;DHT22;42052;41.634;-0.946;2024-02-15T10:04:29;21.20;47.30
56172;DHT22;42052;41.634;-0.946;2024-02-15T10:06:55;21.20;47.30
56172;DHT22;42052;41.634;-0.946;2024-02-15T10:09:28;21.20;47.40
56172;DHT22;42052;41.634;-0.946;2024-02-15T10:11:59;21.20;47.40
56172;DHT22;42052;41.634;-0.946;2024-02-15T10:14:25;21.20;47.30
56172;DHT22;42052;41.634;-0.946;2024-02-15T10:16:52;21.20;48.10
56172;DHT22;42052;41.634;-0.946;2024-02-15T10:19:22;21.30;47.40
56172;DHT22;42052;41.634;-0.946;2024-02-15T10:21:54;21.20;47.30
56172;DHT22;42052;41.634;-0.946;2024-02-15T10:24:23;21.20;47.30
56172;DHT22;42052;41.634;-0.946;2024-02-15T10:27:01;21.20;47.40
56172;DHT22;42052;41.634;-0.946;2024-02-15T10:29:31;21.20;47.30
56172;DHT22;42052;41.634;-0.946;2024-02-15T10:31:59;21.20;47.40
56172;DHT22;42052;41.634;-0.946;2024-02-15T10:34:25;21.20;47.30
56172;DHT22;42052;41.634;-0.946;2024-02-15T10:37:14;21.20;47.30
56172;DHT22;42052;41.634;-0.946;2024-02-15T10:39:44;21.20;47.30
56172;DHT22;42052;41.634;-0.946;2024-02-15T10:42:11;21.20;47.30
56172;DHT22;42052;41.634;-0.946;2024-02-15T10:44:38;21.30;47.30
56172;DHT22;42052;41.634;-0.946;2024-02-15T10:47:04;21.30;47.30
56172;DHT22;42052;41.634;-0.946;2024-02-15T10:49:34;21.20;47.30
56172;DHT22;42052;41.634;-0.946;2024-02-15T10:52:01;21.20;47.30
56172;DHT22;42052;41.634;-0.946;2024-02-15T10:54:46;21.20;47.30
56172;DHT22;42052;41.634;-0.946;2024-02-15T10:57:13;21.20;47.30
56172;DHT22;42052;41.634;-0.946;2024-02-15T10:59:54;21.20;47.30
56172;DHT22;42052;41.634;-0.946;2024-02-15T11:02:29;21.30;47.30
56172;DHT22;42052;41.634;-0.946;2024-02-15T11:05:01;21.30;47.30
56172;DHT22;42052;41.634;-0.946;2024-02-15T11:07:31;21.30;47.30
56172;DHT22;42052;41.634;-0.946;2024-02-15T11:09:58;21.30;47.30
56172;DHT22;42052;41.634;-0.946;2024-02-15T11:12:28;21.30;47.30
56172;DHT22;42052;41.634;-0.946;2024-02-15T11:14:54;21.30;47.20
56172;DHT22;42052;41.634;-0.946;2024-02-15T11:20:46;21.30;47.20
56172;DHT22;42052;41.634;-0.946;2024-02-15T11:23:23;21.30;47.30
56172;DHT22;42052;41.634;-0.946;2024-02-15T11:25:51;21.30;47.20
56172;DHT22;42052;41.634;-0.946;2024-02-15T11:30:52;21.30;47.30
56172;DHT22;42052;41.634;-0.946;2024-02-15T11:33:35;21.30;47.30
56172;DHT22;42052;41.634;-0.946;2024-02-15T11:36:09;21.30;47.30
56172;DHT22;42052;41.634;-0.946;2024-02-15T11:38:36;21.30;47.20
56172;DHT22;42052;41.634;-0.946;2024-02-15T11:41:06;21.30;47.30
56172;DHT22;42052;41.634;-0.946;2024-02-15T11:46:16;21.30;47.20
56172;DHT22;42052;41.634;-0.946;2024-02-15T11:48:48;21.30;47.30
56172;DHT22;42052;41.634;-0.946;2024-02-15T11:51:33;21.30;47.30
56172;DHT22;42052;41.634;-0.946;2024-02-15T11:54:04;21.30;47.30
56172;DHT22;42052;41.634;-0.946;2024-02-15T11:56:53;21.30;47.30
56172;DHT22;42052;41.634;-0.946;2024-02-15T11:59:40;21.30;47.30
56172;DHT22;42052;41.634;-0.946;2024-02-15T12:02:24;21.30;47.30
56172;DHT22;42052;41.634;-0.946;2024-02-15T12:05:09;21.30;47.40
56172;DHT22;42052;41.634;-0.946;2024-02-15T12:07:53;21.30;47.40
56172;DHT22;42052;41.634;-0.946;2024-02-15T12:10:37;21.30;47.40
56172;DHT22;42052;41.634;-0.946;2024-02-15T12:13:22;21.40;47.40
56172;DHT22;42052;41.634;-0.946;2024-02-15T12:16:06;21.30;47.30
56172;DHT22;42052;41.634;-0.946;2024-02-15T12:18:50;21.30;47.30
56172;DHT22;42052;41.634;-0.946;2024-02-15T12:21:23;21.30;47.30
56172;DHT22;42052;41.634;-0.946;2024-02-15T12:23:51;21.30;47.30
56172;DHT22;42052;41.634;-0.946;2024-02-15T12:26:21;21.30;47.30
56172;DHT22;42052;41.634;-0.946;2024-02-15T12:28:54;21.30;47.40
56172;DHT22;42052;41.634;-0.946;2024-02-15T12:31:20;21.30;47.40
56172;DHT22;42052;41.634;-0.946;2024-02-15T12:33:46;21.30;47.40
56172;DHT22;42052;41.634;-0.946;2024-02-15T12:36:15;21.40;47.40
56172;DHT22;42052;41.634;-0.946;2024-02-15T12:38:42;21.40;47.40
56172;DHT22;42052;41.634;-0.946;2024-02-15T12:41:22;21.30;47.40
56172;DHT22;42052;41.634;-0.946;2024-02-15T12:43:52;21.40;47.40
56172;DHT22;42052;41.634;-0.946;2024-02-15T12:46:19;21.40;47.40
56172;DHT22;42052;41.634;-0.946;2024-02-15T12:48:46;21.40;47.40
56172;DHT22;42052;41.634;-0.946;2024-02-15T12:51:15;21.40;47.50
56172;DHT22;42052;41.634;-0.946;2024-02-15T12:53:42;21.40;47.50
56172;DHT22;42052;41.634;-0.946;2024-02-15T12:56:08;21.40;47.50
56172;DHT22;42052;41.634;-0.946;2024-02-15T12:58:36;21.40;47.50
56172;DHT22;42052;41.634;-0.946;2024-02-15T13:01:04;21.40;47.50
56172;DHT22;42052;41.634;-0.946;2024-02-15T13:03:30;21.40;47.40
56172;DHT22;42052;41.634;-0.946;2024-02-15T13:05:56;21.40;47.40
56172;DHT22;42052;41.634;-0.946;2024-02-15T13:08:22;21.40;48.10
56172;DHT22;42052;41.634;-0.946;2024-02-15T13:10:48;21.40;47.30
56172;DHT22;42052;41.634;-0.946;2024-02-15T13:13:15;21.40;47.30
56172;DHT22;42052;41.634;-0.946;2024-02-15T13:15:42;21.40;47.40
56172;DHT22;42052;41.634;-0.946;2024-02-15T13:18:08;21.40;47.30
56172;DHT22;42052;41.634;-0.946;2024-02-15T13:20:39;21.40;47.30
56172;DHT22;42052;41.634;-0.946;2024-02-15T13:23:09;21.40;47.40
56172;DHT22;42052;41.634;-0.946;2024-02-15T13:25:41;21.40;47.40
56172;DHT22;42052;41.634;-0.946;2024-02-15T13:28:09;21.40;47.40
56172;DHT22;42052;41.634;-0.946;2024-02-15T13:30:38;21.40;47.40
56172;DHT22;42052;41.634;-0.946;2024-02-15T13:33:05;21.40;47.50
56172;DHT22;42052;41.634;-0.946;2024-02-15T13:35:32;21.40;47.40
56172;DHT22;42052;41.634;-0.946;2024-02-15T13:37:58;21.30;47.30
56172;DHT22;42052;41.634;-0.946;2024-02-15T13:40:24;21.40;47.40
56172;DHT22;42052;41.634;-0.946;2024-02-15T13:42:54;21.40;47.30
56172;DHT22;42052;41.634;-0.946;2024-02-15T13:45:27;21.40;47.40
56172;DHT22;42052;41.634;-0.946;2024-02-15T13:47:56;21.40;47.30
56172;DHT22;42052;41.634;-0.946;2024-02-15T13:50:23;21.40;47.30
56172;DHT22;42052;41.634;-0.946;2024-02-15T13:52:50;21.40;47.80
56172;DHT22;42052;41.634;-0.946;2024-02-15T13:55:17;21.40;47.40
56172;DHT22;42052;41.634;-0.946;2024-02-15T13:57:46;21.30;47.30
56172;DHT22;42052;41.634;-0.946;2024-02-15T14:00:14;21.30;47.40
56172;DHT22;42052;41.634;-0.946;2024-02-15T14:02:54;21.30;47.40
56172;DHT22;42052;41.634;-0.946;2024-02-15T14:05:24;21.40;47.40
56172;DHT22;42052;41.634;-0.946;2024-02-15T14:07:54;21.40;47.40
56172;DHT22;42052;41.634;-0.946;2024-02-15T14:10:33;21.40;47.40
56172;DHT22;42052;41.634;-0.946;2024-02-15T14:13:03;21.40;47.50
56172;DHT22;42052;41.634;-0.946;2024-02-15T14:15:34;21.40;47.40
56172;DHT22;42052;41.634;-0.946;2024-02-15T14:18:07;21.40;47.40
56172;DHT22;42052;41.634;-0.946;2024-02-15T14:20:36;21.40;47.40
56172;DHT22;42052;41.634;-0.946;2024-02-15T14:23:03;21.40;47.40
56172;DHT22;42052;41.634;-0.946;2024-02-15T14:25:31;21.40;47.40
56172;DHT22;42052;41.634;-0.946;2024-02-15T14:27:58;21.40;47.40
56172;DHT22;42052;41.634;-0.946;2024-02-15T14:30:27;21.40;47.40
56172;DHT22;42052;41.634;-0.946;2024-02-15T14:33:12;21.40;47.40
56172;DHT22;42052;41.634;-0.946;2024-02-15T14:35:41;21.40;47.40
56172;DHT22;42052;41.634;-0.946;2024-02-15T14:38:10;21.40;47.40
56172;DHT22;42052;41.634;-0.946;2024-02-15T14:40:40;21.40;47.40
56172;DHT22;42052;41.634;-0.946;2024-02-15T14:43:07;21.40;47.40
56172;DHT22;42052;41.634;-0.946;2024-02-15T14:45:40;21.40;47.40
56172;DHT22;42052;41.634;-0.946;2024-02-15T14:48:07;21.40;47.40
56172;DHT22;42052;41.634;-0.946;2024-02-15T14:50:37;21.40;47.40
56172;DHT22;42052;41.634;-0.946;2024-02-15T14:53:03;21.40;47.40
56172;DHT22;42052;41.634;-0.946;2024-02-15T14:55:29;21.40;47.40
56172;DHT22;42052;41.634;-0.946;2024-02-15T14:57:57;21.40;47.40
56172;DHT22;42052;41.634;-0.946;2024-02-15T15:00:23;21.40;47.40
56172;DHT22;42052;41.634;-0.946;2024-02-15T15:02:50;21.40;47.40
56172;DHT22;42052;41.634;-0.946;2024-02-15T15:05:16;21.30;47.40
56172;DHT22;42052;41.634;-0.946;2024-02-15T15:08:01;21.30;47.60
56172;DHT22;42052;41.634;-0.946;2024-02-15T15:10:46;21.30;47.50
56172;DHT22;42052;41.634;-0.946;2024-02-15T15:13:34;21.40;47.50
56172;DHT22;42052;41.634;-0.946;2024-02-15T15:16:01;21.30;47.50
56172;DHT22;42052;41.634;-0.946;2024-02-15T15:18:29;21.40;47.50
56172;DHT22;42052;41.634;-0.946;2024-02-15T15:20:57;21.40;47.50
56172;DHT22;42052;41.634;-0.946;2024-02-15T15:23:23;21.40;47.50
56172;DHT22;42052;41.634;-0.946;2024-02-15T15:25:50;21.40;47.50
56172;DHT22;42052;41.634;-0.946;2024-02-15T15:28:16;21.40;47.40
56172;DHT22;42052;41.634;-0.946;2024-02-15T15:30:42;21.40;47.50
56172;DHT22;42052;41.634;-0.946;2024-02-15T15:33:17;21.40;47.50
56172;DHT22;42052;41.634;-0.946;2024-02-15T15:35:44;21.40;47.50